sensor_id;sensor_type;location;lat;lon;timestamp;P1;durP1;ratioP1;P2;durP2;ratioP2
58874;SDS011;44652;49.040;12.126;2023-02-15T06:02:15;35.67;;;13.20;;
58874;SDS011;44652;49.040;12.126;2023-02-15T06:04:41;29.67;;;13.20;;
58874;SDS011;44652;49.040;12.126;2023-02-15T06:07:08;29.25;;;12.80;;
58874;SDS011;44652;49.040;12.126;2023-02-15T06:09:34;28.63;;;12.27;;
58874;SDS011;44652;49.040;12.126;2023-02-15T06:12:01;35.88;;;13.52;;
58874;SDS011;44652;49.040;12.126;2023-02-15T06:14:27;39.10;;;13.80;;
58874;SDS011;44652;49.040;12.126;2023-02-15T06:16:54;42.88;;;14.27;;
58874;SDS011;44652;49.040;12.126;2023-02-15T06:19:20;34.78;;;14.02;;
58874;SDS011;44652;49.040;12.126;2023-02-15T06:21:48;30.83;;;14.30;;
58874;SDS011;44652;49.040;12.126;2023-02-15T06:24:15;53.42;;;15.02;;
58874;SDS011;44652;49.040;12.126;2023-02-15T06:26:42;41.08;;;15.35;;
58874;SDS011;44652;49.040;12.126;2023-02-15T06:29:08;35.90;;;13.63;;
58874;SDS011;44652;49.040;12.126;2023-02-15T06:31:35;44.47;;;14.90;;
58874;SDS011;44652;49.040;12.126;2023-02-15T06:34:01;60.90;;;16.73;;
58874;SDS011;44652;49.040;12.126;2023-02-15T06:36:28;56.67;;;17.17;;
58874;SDS011;44652;49.040;12.126;2023-02-15T06:38:55;41.53;;;14.98;;
58874;SDS011;44652;49.040;12.126;2023-02-15T06:41:22;31.67;;;13.50;;
58874;SDS011;44652;49.040;12.126;2023-02-15T06:43:49;38.30;;;14.63;;
58874;SDS011;44652;49.040;12.126;2023-02-15T06:46:15;44.08;;;14.65;;
58874;SDS011;44652;49.040;12.126;2023-02-15T06:48:42;37.45;;;13.73;;
58874;SDS011;44652;49.040;12.126;2023-02-15T06:51:08;33.05;;;13.93;;
58874;SDS011;44652;49.040;12.126;2023-02-15T06:53:35;49.50;;;14.07;;
58874;SDS011;44652;49.040;12.126;2023-02-15T06:56:03;50.78;;;17.75;;
58874;SDS011;44652;49.040;12.126;2023-02-15T06:58:32;42.03;;;16.75;;
58874;SDS011;44652;49.040;12.126;2023-02-15T07:00:59;41.08;;;14.95;;
58874;SDS011;44652;49.040;12.126;2023-02-15T07:03:25;34.90;;;14.23;;
58874;SDS011;44652;49.040;12.126;2023-02-15T07:05:59;35.50;;;14.57;;
58874;SDS011;44652;49.040;12.126;2023-02-15T07:08:27;30.35;;;12.80;;
58874;SDS011;44652;49.040;12.126;2023-02-15T07:10:54;36.75;;;12.77;;
58874;SDS011;44652;49.040;12.126;2023-02-15T07:13:21;27.08;;;13.48;;
58874;SDS011;44652;49.040;12.126;2023-02-15T07:15:47;41.28;;;13.82;;
58874;SDS011;44652;49.040;12.126;2023-02-15T07:18:14;45.83;;;14.80;;
58874;SDS011;44652;49.040;12.126;2023-02-15T07:20:41;32.65;;;13.35;;
58874;SDS011;44652;49.040;12.126;2023-02-15T07:23:08;37.90;;;13.50;;
58874;SDS011;44652;49.040;12.126;2023-02-15T07:25:34;35.92;;;13.65;;
58874;SDS011;44652;49.040;12.126;2023-02-15T07:28:02;51.53;;;13.60;;
58874;SDS011;44652;49.040;12.126;2023-02-15T07:30:29;47.22;;;13.68;;
58874;SDS011;44652;49.040;12.126;2023-02-15T07:32:56;64.65;;;16.13;;
58874;SDS011;44652;49.040;12.126;2023-02-15T07:35:55;39.65;;;15.30;;
58874;SDS011;44652;49.040;12.126;2023-02-15T07:38:24;33.15;;;14.07;;
58874;SDS011;44652;49.040;12.126;2023-02-15T07:40:51;33.55;;;14.20;;
58874;SDS011;44652;49.040;12.126;2023-02-15T07:43:18;35.55;;;15.07;;
58874;SDS011;44652;49.040;12.126;2023-02-15T07:45:44;35.85;;;16.05;;
58874;SDS011;44652;49.040;12.126;2023-02-15T07:48:11;41.97;;;14.88;;
58874;SDS011;44652;49.040;12.126;2023-02-15T07:50:37;34.58;;;13.95;;
58874;SDS011;44652;49.040;12.126;2023-02-15T07:53:04;40.33;;;14.45;;
58874;SDS011;44652;49.040;12.126;2023-02-15T07:55:31;40.60;;;14.40;;
58874;SDS011;44652;49.040;12.126;2023-02-15T07:57:57;69.25;;;15.40;;
58874;SDS011;44652;49.040;12.126;2023-02-15T08:00:24;34.85;;;14.38;;
58874;SDS011;44652;49.040;12.126;2023-02-15T08:02:54;40.30;;;15.30;;
58874;SDS011;44652;49.040;12.126;2023-02-15T08:05:40;36.00;;;14.02;;
58874;SDS011;44652;49.040;12.126;2023-02-15T08:08:07;37.28;;;14.43;;
58874;SDS011;44652;49.040;12.126;2023-02-15T08:10:35;39.47;;;14.82;;
58874;SDS011;44652;49.040;12.126;2023-02-15T08:13:20;36.05;;;15.43;;
58874;SDS011;44652;49.040;12.126;2023-02-15T08:15:50;40.25;;;15.52;;
58874;SDS011;44652;49.040;12.126;2023-02-15T08:18:16;36.55;;;14.77;;
58874;SDS011;44652;49.040;12.126;2023-02-15T08:20:48;33.63;;;15.23;;
58874;SDS011;44652;49.040;12.126;2023-02-15T08:23:14;45.78;;;15.20;;
58874;SDS011;44652;49.040;12.126;2023-02-15T08:25:41;43.47;;;16.33;;
58874;SDS011;44652;49.040;12.126;2023-02-15T08:28:07;43.40;;;15.73;;
58874;SDS011;44652;49.040;12.126;2023-02-15T08:30:34;35.72;;;15.05;;
58874;SDS011;44652;49.040;12.126;2023-02-15T08:33:02;40.22;;;15.07;;
58874;SDS011;44652;49.040;12.126;2023-02-15T08:35:28;31.92;;;15.20;;
58874;SDS011;44652;49.040;12.126;2023-02-15T08:37:55;37.35;;;14.65;;
58874;SDS011;44652;49.040;12.126;2023-02-15T08:40:21;35.70;;;13.68;;
58874;SDS011;44652;49.040;12.126;2023-02-15T08:42:48;39.13;;;15.05;;
58874;SDS011;44652;49.040;12.126;2023-02-15T08:45:14;42.72;;;14.70;;
58874;SDS011;44652;49.040;12.126;2023-02-15T08:47:41;38.72;;;15.10;;
58874;SDS011;44652;49.040;12.126;2023-02-15T08:50:07;35.38;;;15.90;;
58874;SDS011;44652;49.040;12.126;2023-02-15T08:52:34;39.45;;;15.90;;
58874;SDS011;44652;49.040;12.126;2023-02-15T08:55:00;42.17;;;15.52;;
58874;SDS011;44652;49.040;12.126;2023-02-15T08:57:27;51.67;;;18.80;;
58874;SDS011;44652;49.040;12.126;2023-02-15T08:59:53;37.47;;;15.63;;
58874;SDS011;44652;49.040;12.126;2023-02-15T09:02:21;35.65;;;15.85;;
58874;SDS011;44652;49.040;12.126;2023-02-15T09:04:47;37.22;;;17.45;;
58874;SDS011;44652;49.040;12.126;2023-02-15T09:07:14;41.13;;;17.08;;
58874;SDS011;44652;49.040;12.126;2023-02-15T09:09:40;46.20;;;15.60;;
58874;SDS011;44652;49.040;12.126;2023-02-15T09:12:07;45.33;;;17.05;;
58874;SDS011;44652;49.040;12.126;2023-02-15T09:14:34;47.33;;;18.00;;
58874;SDS011;44652;49.040;12.126;2023-02-15T09:17:00;41.28;;;17.77;;
58874;SDS011;44652;49.040;12.126;2023-02-15T09:19:27;40.15;;;18.77;;
58874;SDS011;44652;49.040;12.126;2023-02-15T09:21:53;40.78;;;17.38;;
58874;SDS011;44652;49.040;12.126;2023-02-15T09:24:20;43.60;;;17.92;;
58874;SDS011;44652;49.040;12.126;2023-02-15T09:26:47;50.95;;;18.15;;
58874;SDS011;44652;49.040;12.126;2023-02-15T09:29:14;39.70;;;19.20;;
58874;SDS011;44652;49.040;12.126;2023-02-15T09:31:41;39.15;;;17.63;;
58874;SDS011;44652;49.040;12.126;2023-02-15T09:34:13;37.60;;;16.50;;
58874;SDS011;44652;49.040;12.126;2023-02-15T09:36:42;35.00;;;17.08;;
58874;SDS011;44652;49.040;12.126;2023-02-15T09:39:10;35.42;;;16.63;;
58874;SDS011;44652;49.040;12.126;2023-02-15T09:41:46;34.63;;;15.75;;
58874;SDS011;44652;49.040;12.126;2023-02-15T09:44:22;36.90;;;17.10;;
58874;SDS011;44652;49.040;12.126;2023-02-15T09:49:38;33.25;;;16.48;;
58874;SDS011;44652;49.040;12.126;2023-02-15T09:57:15;37.17;;;17.55;;
58874;SDS011;44652;49.040;12.126;2023-02-15T10:02:15;35.15;;;15.98;;
58874;SDS011;44652;49.040;12.126;2023-02-15T10:05:06;32.38;;;15.75;;
58874;SDS011;44652;49.040;12.126;2023-02-15T10:07:43;38.50;;;16.83;;
58874;SDS011;44652;49.040;12.126;2023-02-15T10:17:56;35.25;;;17.30;;
58874;SDS011;44652;49.040;12.126;2023-02-15T10:25:42;33.22;;;16.33;;
58874;SDS011;44652;49.040;12.126;2023-02-15T10:28:20;35.90;;;17.17;;
58874;SDS011;44652;49.040;12.126;2023-02-15T10:30:48;35.15;;;16.58;;
58874;SDS011;44652;49.040;12.126;2023-02-15T10:48:44;33.35;;;16.63;;
58874;SDS011;44652;49.040;12.126;2023-02-15T10:51:18;33.80;;;17.02;;
58874;SDS011;44652;49.040;12.126;2023-02-15T10:56:19;31.40;;;16.67;;
58874;SDS011;44652;49.040;12.126;2023-02-15T10:59:09;32.25;;;16.42;;
58874;SDS011;44652;49.040;12.126;2023-02-15T11:04:48;31.65;;;16.10;;
58874;SDS011;44652;49.040;12.126;2023-02-15T11:09:45;32.40;;;18.10;;
58874;SDS011;44652;49.040;12.126;2023-02-15T11:12:14;33.97;;;17.38;;
58874;SDS011;44652;49.040;12.126;2023-02-15T11:14:47;30.83;;;16.92;;
58874;SDS011;44652;49.040;12.126;2023-02-15T11:17:17;28.88;;;16.67;;
58874;SDS011;44652;49.040;12.126;2023-02-15T11:22:15;33.80;;;18.98;;
58874;SDS011;44652;49.040;12.126;2023-02-15T11:24:43;37.50;;;20.65;;
58874;SDS011;44652;49.040;12.126;2023-02-15T11:27:18;37.10;;;20.17;;
58874;SDS011;44652;49.040;12.126;2023-02-15T11:32:28;30.38;;;17.85;;
58874;SDS011;44652;49.040;12.126;2023-02-15T11:42:54;35.33;;;19.58;;
58874;SDS011;44652;49.040;12.126;2023-02-15T11:45:34;31.95;;;16.95;;
58874;SDS011;44652;49.040;12.126;2023-02-15T11:48:01;30.73;;;17.15;;
58874;SDS011;44652;49.040;12.126;2023-02-15T11:50:34;32.28;;;18.48;;
58874;SDS011;44652;49.040;12.126;2023-02-15T11:53:02;42.83;;;22.38;;
58874;SDS011;44652;49.040;12.126;2023-02-15T11:55:30;35.67;;;18.15;;
58874;SDS011;44652;49.040;12.126;2023-02-15T11:57:59;32.83;;;18.50;;
58874;SDS011;44652;49.040;12.126;2023-02-15T12:00:32;30.27;;;17.23;;
58874;SDS011;44652;49.040;12.126;2023-02-15T12:03:07;31.80;;;17.20;;
58874;SDS011;44652;49.040;12.126;2023-02-15T12:05:36;36.10;;;18.83;;
58874;SDS011;44652;49.040;12.126;2023-02-15T12:08:09;33.60;;;17.27;;
58874;SDS011;44652;49.040;12.126;2023-02-15T12:10:38;33.38;;;18.40;;
58874;SDS011;44652;49.040;12.126;2023-02-15T12:13:13;38.28;;;19.27;;
58874;SDS011;44652;49.040;12.126;2023-02-15T12:15:41;33.30;;;17.88;;
58874;SDS011;44652;49.040;12.126;2023-02-15T12:18:19;36.92;;;19.63;;
58874;SDS011;44652;49.040;12.126;2023-02-15T12:20:46;34.05;;;18.27;;
58874;SDS011;44652;49.040;12.126;2023-02-15T12:23:13;33.40;;;18.00;;
58874;SDS011;44652;49.040;12.126;2023-02-15T12:25:49;34.47;;;19.63;;
58874;SDS011;44652;49.040;12.126;2023-02-15T12:28:36;33.45;;;18.02;;
58874;SDS011;44652;49.040;12.126;2023-02-15T12:31:20;34.17;;;18.27;;
58874;SDS011;44652;49.040;12.126;2023-02-15T12:33:47;32.28;;;17.48;;
58874;SDS011;44652;49.040;12.126;2023-02-15T12:37:00;35.17;;;19.00;;
58874;SDS011;44652;49.040;12.126;2023-02-15T12:41:49;36.78;;;19.80;;
58874;SDS011;44652;49.040;12.126;2023-02-15T12:44:23;35.22;;;18.77;;
58874;SDS011;44652;49.040;12.126;2023-02-15T12:47:34;35.13;;;18.73;;
58874;SDS011;44652;49.040;12.126;2023-02-15T12:49:41;35.95;;;19.80;;
58874;SDS011;44652;49.040;12.126;2023-02-15T12:54:48;35.78;;;19.23;;
58874;SDS011;44652;49.040;12.126;2023-02-15T12:57:22;39.28;;;20.30;;
58874;SDS011;44652;49.040;12.126;2023-02-15T12:59:50;38.20;;;20.40;;
58874;SDS011;44652;49.040;12.126;2023-02-15T13:02:51;40.03;;;20.00;;
58874;SDS011;44652;49.040;12.126;2023-02-15T13:05:22;36.42;;;19.40;;
58874;SDS011;44652;49.040;12.126;2023-02-15T13:08:27;41.67;;;21.70;;
58874;SDS011;44652;49.040;12.126;2023-02-15T13:10:53;37.67;;;21.23;;
58874;SDS011;44652;49.040;12.126;2023-02-15T13:13:21;35.35;;;19.90;;
58874;SDS011;44652;49.040;12.126;2023-02-15T13:15:49;35.13;;;18.73;;
58874;SDS011;44652;49.040;12.126;2023-02-15T13:18:18;38.15;;;20.25;;
58874;SDS011;44652;49.040;12.126;2023-02-15T13:20:46;35.40;;;19.60;;
58874;SDS011;44652;49.040;12.126;2023-02-15T13:23:22;36.40;;;19.30;;
58874;SDS011;44652;49.040;12.126;2023-02-15T13:25:51;41.38;;;21.40;;
58874;SDS011;44652;49.040;12.126;2023-02-15T13:28:18;35.33;;;19.45;;
58874;SDS011;44652;49.040;12.126;2023-02-15T13:30:46;36.03;;;19.83;;
58874;SDS011;44652;49.040;12.126;2023-02-15T13:33:33;38.42;;;21.10;;
58874;SDS011;44652;49.040;12.126;2023-02-15T13:41:09;37.60;;;20.95;;
58874;SDS011;44652;49.040;12.126;2023-02-15T13:54:33;35.05;;;19.50;;
58874;SDS011;44652;49.040;12.126;2023-02-15T14:00:04;33.78;;;18.27;;
58874;SDS011;44652;49.040;12.126;2023-02-15T14:13:05;38.90;;;20.92;;
58874;SDS011;44652;49.040;12.126;2023-02-15T14:15:38;36.65;;;21.25;;
58874;SDS011;44652;49.040;12.126;2023-02-15T14:25:55;40.40;;;20.85;;
58874;SDS011;44652;49.040;12.126;2023-02-15T14:31:09;38.53;;;20.70;;
58874;SDS011;44652;49.040;12.126;2023-02-15T14:33:38;34.05;;;19.33;;
58874;SDS011;44652;49.040;12.126;2023-02-15T14:36:06;36.45;;;21.67;;
58874;SDS011;44652;49.040;12.126;2023-02-15T14:41:04;34.50;;;20.75;;
58874;SDS011;44652;49.040;12.126;2023-02-15T14:44:00;37.22;;;19.73;;
58874;SDS011;44652;49.040;12.126;2023-02-15T14:49:10;34.70;;;19.98;;
58874;SDS011;44652;49.040;12.126;2023-02-15T15:01:55;32.35;;;18.65;;
58874;SDS011;44652;49.040;12.126;2023-02-15T15:04:26;37.15;;;20.85;;
58874;SDS011;44652;49.040;12.126;2023-02-15T15:07:03;33.95;;;19.15;;
58874;SDS011;44652;49.040;12.126;2023-02-15T15:09:30;37.53;;;19.33;;
58874;SDS011;44652;49.040;12.126;2023-02-15T15:14:53;34.83;;;18.77;;
58874;SDS011;44652;49.040;12.126;2023-02-15T15:22:30;34.22;;;20.55;;
58874;SDS011;44652;49.040;12.126;2023-02-15T15:24:57;36.53;;;20.00;;
58874;SDS011;44652;49.040;12.126;2023-02-15T15:27:37;33.97;;;18.88;;
58874;SDS011;44652;49.040;12.126;2023-02-15T15:30:49;36.55;;;19.75;;
58874;SDS011;44652;49.040;12.126;2023-02-15T15:37:51;35.42;;;18.67;;
58874;SDS011;44652;49.040;12.126;2023-02-15T15:44:00;36.42;;;19.33;;
58874;SDS011;44652;49.040;12.126;2023-02-15T15:48:30;39.15;;;20.05;;
58874;SDS011;44652;49.040;12.126;2023-02-15T15:50:59;48.88;;;19.52;;
58874;SDS011;44652;49.040;12.126;2023-02-15T15:53:27;38.35;;;20.38;;
58874;SDS011;44652;49.040;12.126;2023-02-15T15:55:56;44.53;;;21.33;;
58874;SDS011;44652;49.040;12.126;2023-02-15T15:58:24;36.63;;;18.67;;
58874;SDS011;44652;49.040;12.126;2023-02-15T16:03:22;43.83;;;20.80;;
58874;SDS011;44652;49.040;12.126;2023-02-15T16:05:48;38.80;;;20.45;;
58874;SDS011;44652;49.040;12.126;2023-02-15T16:08:28;38.58;;;20.35;;
58874;SDS011;44652;49.040;12.126;2023-02-15T16:10:55;38.03;;;19.02;;
58874;SDS011;44652;49.040;12.126;2023-02-15T16:13:22;34.15;;;18.58;;
58874;SDS011;44652;49.040;12.126;2023-02-15T16:15:50;43.85;;;22.70;;
58874;SDS011;44652;49.040;12.126;2023-02-15T16:18:20;43.28;;;21.52;;
58874;SDS011;44652;49.040;12.126;2023-02-15T16:20:52;47.60;;;26.65;;
58874;SDS011;44652;49.040;12.126;2023-02-15T16:28:31;42.03;;;21.02;;
58874;SDS011;44652;49.040;12.126;2023-02-15T16:33:36;47.53;;;24.60;;
58874;SDS011;44652;49.040;12.126;2023-02-15T16:36:03;41.15;;;22.63;;
58874;SDS011;44652;49.040;12.126;2023-02-15T16:41:09;46.65;;;22.23;;
58874;SDS011;44652;49.040;12.126;2023-02-15T16:43:36;41.30;;;20.63;;
58874;SDS011;44652;49.040;12.126;2023-02-15T16:46:04;42.40;;;21.40;;
58874;SDS011;44652;49.040;12.126;2023-02-15T16:48:31;50.28;;;21.80;;
58874;SDS011;44652;49.040;12.126;2023-02-15T16:50:58;44.08;;;21.27;;
58874;SDS011;44652;49.040;12.126;2023-02-15T16:53:26;45.22;;;22.33;;
58874;SDS011;44652;49.040;12.126;2023-02-15T16:56:02;49.97;;;24.73;;
58874;SDS011;44652;49.040;12.126;2023-02-15T16:58:40;43.40;;;22.77;;
58874;SDS011;44652;49.040;12.126;2023-02-15T17:01:08;43.40;;;21.88;;
58874;SDS011;44652;49.040;12.126;2023-02-15T17:03:36;50.38;;;24.20;;
58874;SDS011;44652;49.040;12.126;2023-02-15T17:06:03;56.03;;;33.10;;
58874;SDS011;44652;49.040;12.126;2023-02-15T17:08:33;54.72;;;23.35;;
58874;SDS011;44652;49.040;12.126;2023-02-15T17:11:11;43.00;;;24.05;;
58874;SDS011;44652;49.040;12.126;2023-02-15T17:13:38;48.58;;;23.98;;
58874;SDS011;44652;49.040;12.126;2023-02-15T17:19:08;54.70;;;23.80;;
58874;SDS011;44652;49.040;12.126;2023-02-15T17:21:37;60.80;;;28.17;;
58874;SDS011;44652;49.040;12.126;2023-02-15T17:24:06;62.00;;;24.83;;
58874;SDS011;44652;49.040;12.126;2023-02-15T17:26:34;51.45;;;24.73;;
58874;SDS011;44652;49.040;12.126;2023-02-15T17:29:02;69.57;;;34.50;;
58874;SDS011;44652;49.040;12.126;2023-02-15T17:31:36;55.40;;;25.17;;
58874;SDS011;44652;49.040;12.126;2023-02-15T17:34:03;44.63;;;21.95;;
58874;SDS011;44652;49.040;12.126;2023-02-15T17:36:30;51.33;;;24.02;;
58874;SDS011;44652;49.040;12.126;2023-02-15T17:41:23;46.25;;;22.50;;
58874;SDS011;44652;49.040;12.126;2023-02-15T17:43:50;54.35;;;23.35;;
58874;SDS011;44652;49.040;12.126;2023-02-15T17:46:16;55.22;;;24.73;;
58874;SDS011;44652;49.040;12.126;2023-02-15T17:48:45;47.22;;;24.40;;
58874;SDS011;44652;49.040;12.126;2023-02-15T17:51:13;46.00;;;23.05;;
58874;SDS011;44652;49.040;12.126;2023-02-15T17:53:40;52.33;;;23.70;;
58874;SDS011;44652;49.040;12.126;2023-02-15T17:56:06;50.95;;;23.50;;
58874;SDS011;44652;49.040;12.126;2023-02-15T17:58:36;51.15;;;23.02;;
58874;SDS011;44652;49.040;12.126;2023-02-15T18:01:05;46.85;;;22.58;;
58874;SDS011;44652;49.040;12.126;2023-02-15T18:03:51;52.47;;;22.33;;
58874;SDS011;44652;49.040;12.126;2023-02-15T18:06:38;56.78;;;25.10;;
58874;SDS011;44652;49.040;12.126;2023-02-15T18:09:24;58.38;;;24.42;;
58874;SDS011;44652;49.040;12.126;2023-02-15T18:12:19;59.40;;;24.83;;
58874;SDS011;44652;49.040;12.126;2023-02-15T18:14:47;56.33;;;25.00;;
58874;SDS011;44652;49.040;12.126;2023-02-15T18:17:13;51.15;;;24.00;;
58874;SDS011;44652;49.040;12.126;2023-02-15T18:19:41;46.30;;;23.08;;
58874;SDS011;44652;49.040;12.126;2023-02-15T18:22:10;53.03;;;24.10;;
58874;SDS011;44652;49.040;12.126;2023-02-15T18:24:36;54.33;;;24.73;;
58874;SDS011;44652;49.040;12.126;2023-02-15T18:27:03;51.13;;;24.23;;
58874;SDS011;44652;49.040;12.126;2023-02-15T18:29:30;51.53;;;25.25;;
58874;SDS011;44652;49.040;12.126;2023-02-15T18:31:58;79.78;;;28.73;;
58874;SDS011;44652;49.040;12.126;2023-02-15T18:34:32;64.97;;;25.80;;
58874;SDS011;44652;49.040;12.126;2023-02-15T18:37:00;70.88;;;27.10;;
58874;SDS011;44652;49.040;12.126;2023-02-15T18:39:37;54.40;;;25.23;;
58874;SDS011;44652;49.040;12.126;2023-02-15T18:42:06;69.05;;;25.48;;
58874;SDS011;44652;49.040;12.126;2023-02-15T18:44:35;70.82;;;24.77;;
58874;SDS011;44652;49.040;12.126;2023-02-15T18:47:02;72.30;;;27.42;;
58874;SDS011;44652;49.040;12.126;2023-02-15T18:49:28;50.83;;;24.05;;
58874;SDS011;44652;49.040;12.126;2023-02-15T18:51:55;62.70;;;26.40;;
58874;SDS011;44652;49.040;12.126;2023-02-15T18:54:21;57.17;;;26.17;;
58874;SDS011;44652;49.040;12.126;2023-02-15T18:56:55;63.60;;;27.85;;
58874;SDS011;44652;49.040;12.126;2023-02-15T18:59:23;67.10;;;28.67;;
58874;SDS011;44652;49.040;12.126;2023-02-15T19:01:50;61.88;;;28.75;;
58874;SDS011;44652;49.040;12.126;2023-02-15T19:04:17;60.90;;;27.63;;
58874;SDS011;44652;49.040;12.126;2023-02-15T19:06:44;61.20;;;29.00;;
58874;SDS011;44652;49.040;12.126;2023-02-15T19:09:15;58.15;;;27.52;;
58874;SDS011;44652;49.040;12.126;2023-02-15T19:11:43;63.75;;;28.27;;
58874;SDS011;44652;49.040;12.126;2023-02-15T19:14:24;63.83;;;29.20;;
58874;SDS011;44652;49.040;12.126;2023-02-15T19:16:51;63.75;;;26.15;;
58874;SDS011;44652;49.040;12.126;2023-02-15T19:19:18;62.78;;;30.40;;
58874;SDS011;44652;49.040;12.126;2023-02-15T19:21:44;64.07;;;32.15;;
58874;SDS011;44652;49.040;12.126;2023-02-15T19:24:13;60.20;;;27.35;;
58874;SDS011;44652;49.040;12.126;2023-02-15T19:26:42;61.85;;;29.92;;
58874;SDS011;44652;49.040;12.126;2023-02-15T19:29:12;51.88;;;24.77;;
58874;SDS011;44652;49.040;12.126;2023-02-15T19:31:39;54.97;;;25.15;;
58874;SDS011;44652;49.040;12.126;2023-02-15T19:34:09;59.25;;;28.30;;
58874;SDS011;44652;49.040;12.126;2023-02-15T19:36:38;52.00;;;25.05;;
58874;SDS011;44652;49.040;12.126;2023-02-15T19:39:05;44.85;;;23.20;;
58874;SDS011;44652;49.040;12.126;2023-02-15T19:41:31;46.78;;;23.60;;
58874;SDS011;44652;49.040;12.126;2023-02-15T19:43:59;45.90;;;23.02;;
58874;SDS011;44652;49.040;12.126;2023-02-15T19:46:26;44.92;;;21.77;;
58874;SDS011;44652;49.040;12.126;2023-02-15T19:48:52;48.80;;;23.23;;
58874;SDS011;44652;49.040;12.126;2023-02-15T19:51:20;52.55;;;21.85;;
58874;SDS011;44652;49.040;12.126;2023-02-15T19:53:47;55.33;;;23.80;;
58874;SDS011;44652;49.040;12.126;2023-02-15T19:56:19;49.60;;;23.65;;
58874;SDS011;44652;49.040;12.126;2023-02-15T19:58:46;49.53;;;23.33;;
58874;SDS011;44652;49.040;12.126;2023-02-15T20:01:16;49.13;;;22.40;;
58874;SDS011;44652;49.040;12.126;2023-02-15T20:03:43;44.97;;;22.73;;
58874;SDS011;44652;49.040;12.126;2023-02-15T20:06:13;55.58;;;23.48;;
58874;SDS011;44652;49.040;12.126;2023-02-15T20:08:40;50.15;;;24.38;;
58874;SDS011;44652;49.040;12.126;2023-02-15T20:11:09;46.60;;;24.08;;
58874;SDS011;44652;49.040;12.126;2023-02-15T20:13:35;55.47;;;24.58;;
58874;SDS011;44652;49.040;12.126;2023-02-15T20:16:02;48.53;;;25.60;;
58874;SDS011;44652;49.040;12.126;2023-02-15T20:18:33;48.25;;;23.75;;
58874;SDS011;44652;49.040;12.126;2023-02-15T20:21:00;54.97;;;22.40;;
58874;SDS011;44652;49.040;12.126;2023-02-15T20:23:29;49.67;;;24.52;;
58874;SDS011;44652;49.040;12.126;2023-02-15T20:25:58;46.38;;;23.75;;
58874;SDS011;44652;49.040;12.126;2023-02-15T20:28:26;47.53;;;22.98;;
58874;SDS011;44652;49.040;12.126;2023-02-15T20:30:53;52.03;;;23.65;;
58874;SDS011;44652;49.040;12.126;2023-02-15T20:33:20;46.08;;;22.77;;
58874;SDS011;44652;49.040;12.126;2023-02-15T20:35:46;53.10;;;24.38;;
58874;SDS011;44652;49.040;12.126;2023-02-15T20:38:21;52.53;;;24.95;;
58874;SDS011;44652;49.040;12.126;2023-02-15T20:40:47;52.10;;;28.45;;
58874;SDS011;44652;49.040;12.126;2023-02-15T20:43:33;52.22;;;26.02;;
58874;SDS011;44652;49.040;12.126;2023-02-15T20:46:00;50.28;;;25.45;;
58874;SDS011;44652;49.040;12.126;2023-02-15T20:48:27;49.33;;;25.20;;
58874;SDS011;44652;49.040;12.126;2023-02-15T20:50:53;47.47;;;23.02;;
58874;SDS011;44652;49.040;12.126;2023-02-15T20:53:20;48.70;;;22.67;;
58874;SDS011;44652;49.040;12.126;2023-02-15T20:55:47;46.50;;;23.48;;
58874;SDS011;44652;49.040;12.126;2023-02-15T21:00:47;45.85;;;22.15;;
58874;SDS011;44652;49.040;12.126;2023-02-15T21:03:13;47.97;;;22.83;;
58874;SDS011;44652;49.040;12.126;2023-02-15T21:05:40;46.88;;;23.23;;
58874;SDS011;44652;49.040;12.126;2023-02-15T21:08:17;46.95;;;23.30;;
58874;SDS011;44652;49.040;12.126;2023-02-15T21:10:45;57.03;;;24.20;;
58874;SDS011;44652;49.040;12.126;2023-02-15T21:13:30;48.50;;;23.38;;
58874;SDS011;44652;49.040;12.126;2023-02-15T21:15:57;46.65;;;22.67;;
58874;SDS011;44652;49.040;12.126;2023-02-15T21:18:25;49.13;;;23.30;;
58874;SDS011;44652;49.040;12.126;2023-02-15T21:20:53;52.67;;;25.42;;
58874;SDS011;44652;49.040;12.126;2023-02-15T21:23:21;50.28;;;24.02;;
58874;SDS011;44652;49.040;12.126;2023-02-15T21:25:49;50.75;;;23.98;;
58874;SDS011;44652;49.040;12.126;2023-02-15T21:28:20;54.58;;;25.50;;
58874;SDS011;44652;49.040;12.126;2023-02-15T21:30:47;59.85;;;25.20;;
58874;SDS011;44652;49.040;12.126;2023-02-15T21:33:14;72.65;;;24.90;;
58874;SDS011;44652;49.040;12.126;2023-02-15T21:35:45;56.60;;;25.95;;
